sensor_id;sensor_type;location;lat;lon;timestamp;temperature;humidity
72440;DHT22;60446;50.752;4.352;2023-03-14T00:01:09;10.10;71.30
72440;DHT22;60446;50.752;4.352;2023-03-14T00:03:36;10.20;71.70
72440;DHT22;60446;50.752;4.352;2023-03-14T00:06:04;10.10;71.60
72440;DHT22;60446;50.752;4.352;2023-03-14T00:08:32;10.10;72.20
72440;DHT22;60446;50.752;4.352;2023-03-14T00:11:08;10.10;72.20
72440;DHT22;60446;50.752;4.352;2023-03-14T00:13:39;10.10;72.70
72440;DHT22;60446;50.752;4.352;2023-03-14T00:16:09;10.00;72.90
72440;DHT22;60446;50.752;4.352;2023-03-14T00:18:38;10.10;72.70
72440;DHT22;60446;50.752;4.352;2023-03-14T00:21:07;10.10;72.50
72440;DHT22;60446;50.752;4.352;2023-03-14T00:23:36;10.00;72.20
72440;DHT22;60446;50.752;4.352;2023-03-14T00:26:07;10.00;72.80
72440;DHT22;60446;50.752;4.352;2023-03-14T00:28:36;10.00;73.00
72440;DHT22;60446;50.752;4.352;2023-03-14T00:31:04;10.00;72.60
72440;DHT22;60446;50.752;4.352;2023-03-14T00:33:33;10.00;72.10
72440;DHT22;60446;50.752;4.352;2023-03-14T00:36:08;10.00;72.40
72440;DHT22;60446;50.752;4.352;2023-03-14T00:38:38;10.00;72.50
72440;DHT22;60446;50.752;4.352;2023-03-14T00:41:12;10.00;72.60
72440;DHT22;60446;50.752;4.352;2023-03-14T00:43:41;10.00;72.90
72440;DHT22;60446;50.752;4.352;2023-03-14T00:46:09;10.00;72.60
72440;DHT22;60446;50.752;4.352;2023-03-14T00:48:36;10.00;72.80
72440;DHT22;60446;50.752;4.352;2023-03-14T00:51:04;10.00;72.80
72440;DHT22;60446;50.752;4.352;2023-03-14T00:53:35;10.00;72.70
72440;DHT22;60446;50.752;4.352;2023-03-14T00:56:05;9.90;72.50
72440;DHT22;60446;50.752;4.352;2023-03-14T00:58:34;9.90;72.70
72440;DHT22;60446;50.752;4.352;2023-03-14T01:01:09;9.90;72.90
72440;DHT22;60446;50.752;4.352;2023-03-14T01:03:39;9.90;72.70
72440;DHT22;60446;50.752;4.352;2023-03-14T01:06:15;9.90;72.70
72440;DHT22;60446;50.752;4.352;2023-03-14T01:08:45;9.90;72.40
72440;DHT22;60446;50.752;4.352;2023-03-14T01:11:15;10.00;72.00
72440;DHT22;60446;50.752;4.352;2023-03-14T01:13:46;10.00;72.40
72440;DHT22;60446;50.752;4.352;2023-03-14T01:16:14;10.00;72.30
72440;DHT22;60446;50.752;4.352;2023-03-14T01:18:43;10.00;72.40
72440;DHT22;60446;50.752;4.352;2023-03-14T01:21:17;9.90;72.40
72440;DHT22;60446;50.752;4.352;2023-03-14T01:23:52;9.90;72.20
72440;DHT22;60446;50.752;4.352;2023-03-14T01:26:22;9.80;72.00
72440;DHT22;60446;50.752;4.352;2023-03-14T01:28:53;9.80;72.60
72440;DHT22;60446;50.752;4.352;2023-03-14T01:31:21;9.70;72.90
72440;DHT22;60446;50.752;4.352;2023-03-14T01:33:50;9.60;72.60
72440;DHT22;60446;50.752;4.352;2023-03-14T01:36:18;9.50;73.10
72440;DHT22;60446;50.752;4.352;2023-03-14T01:38:45;9.60;73.20
72440;DHT22;60446;50.752;4.352;2023-03-14T01:41:21;9.50;74.20
72440;DHT22;60446;50.752;4.352;2023-03-14T01:43:51;9.50;75.00
72440;DHT22;60446;50.752;4.352;2023-03-14T01:46:36;9.40;75.80
72440;DHT22;60446;50.752;4.352;2023-03-14T01:49:24;9.30;77.20
72440;DHT22;60446;50.752;4.352;2023-03-14T01:52:11;9.20;78.30
72440;DHT22;60446;50.752;4.352;2023-03-14T01:54:49;9.10;78.50
72440;DHT22;60446;50.752;4.352;2023-03-14T01:57:27;9.00;79.70
72440;DHT22;60446;50.752;4.352;2023-03-14T02:00:04;8.90;80.30
72440;DHT22;60446;50.752;4.352;2023-03-14T02:03:04;8.80;80.70
72440;DHT22;60446;50.752;4.352;2023-03-14T02:05:38;8.70;81.40
72440;DHT22;60446;50.752;4.352;2023-03-14T02:08:18;8.70;81.70
72440;DHT22;60446;50.752;4.352;2023-03-14T02:10:52;8.60;82.50
72440;DHT22;60446;50.752;4.352;2023-03-14T02:13:25;8.60;82.60
72440;DHT22;60446;50.752;4.352;2023-03-14T02:16:11;8.60;83.00
72440;DHT22;60446;50.752;4.352;2023-03-14T02:19:02;8.60;83.00
72440;DHT22;60446;50.752;4.352;2023-03-14T02:22:21;8.70;83.10
72440;DHT22;60446;50.752;4.352;2023-03-14T02:25:08;8.70;82.90
72440;DHT22;60446;50.752;4.352;2023-03-14T02:27:36;8.70;83.20
72440;DHT22;60446;50.752;4.352;2023-03-14T02:30:24;8.70;83.50
72440;DHT22;60446;50.752;4.352;2023-03-14T02:35:44;8.60;84.00
72440;DHT22;60446;50.752;4.352;2023-03-14T02:38:24;8.60;84.40
72440;DHT22;60446;50.752;4.352;2023-03-14T02:40:56;8.70;84.30
72440;DHT22;60446;50.752;4.352;2023-03-14T02:43:24;8.70;84.40
72440;DHT22;60446;50.752;4.352;2023-03-14T02:45:57;8.70;84.50
72440;DHT22;60446;50.752;4.352;2023-03-14T02:48:27;8.70;84.50
72440;DHT22;60446;50.752;4.352;2023-03-14T02:50:58;8.70;84.40
72440;DHT22;60446;50.752;4.352;2023-03-14T02:53:33;8.80;84.40
72440;DHT22;60446;50.752;4.352;2023-03-14T02:56:07;8.80;84.50
72440;DHT22;60446;50.752;4.352;2023-03-14T02:58:36;8.80;84.40
72440;DHT22;60446;50.752;4.352;2023-03-14T03:01:12;8.80;84.30
72440;DHT22;60446;50.752;4.352;2023-03-14T03:03:40;8.80;84.30
72440;DHT22;60446;50.752;4.352;2023-03-14T03:06:07;8.90;84.60
72440;DHT22;60446;50.752;4.352;2023-03-14T03:08:34;8.90;84.30
72440;DHT22;60446;50.752;4.352;2023-03-14T03:11:02;8.90;84.50
72440;DHT22;60446;50.752;4.352;2023-03-14T03:13:31;8.90;84.60
72440;DHT22;60446;50.752;4.352;2023-03-14T03:16:00;8.90;84.20
72440;DHT22;60446;50.752;4.352;2023-03-14T03:18:28;9.00;84.40
72440;DHT22;60446;50.752;4.352;2023-03-14T03:20:56;8.90;84.50
72440;DHT22;60446;50.752;4.352;2023-03-14T03:23:27;8.90;84.40
72440;DHT22;60446;50.752;4.352;2023-03-14T03:25:54;8.90;84.60
72440;DHT22;60446;50.752;4.352;2023-03-14T03:28:21;8.90;84.80
72440;DHT22;60446;50.752;4.352;2023-03-14T03:30:50;8.90;85.10
72440;DHT22;60446;50.752;4.352;2023-03-14T03:33:17;8.90;84.80
72440;DHT22;60446;50.752;4.352;2023-03-14T03:35:49;8.90;84.80
72440;DHT22;60446;50.752;4.352;2023-03-14T03:38:23;8.90;84.90
72440;DHT22;60446;50.752;4.352;2023-03-14T03:40:53;8.90;85.00
72440;DHT22;60446;50.752;4.352;2023-03-14T03:43:23;8.80;85.00
72440;DHT22;60446;50.752;4.352;2023-03-14T03:45:51;8.90;85.10
72440;DHT22;60446;50.752;4.352;2023-03-14T03:48:19;8.90;85.10
72440;DHT22;60446;50.752;4.352;2023-03-14T03:50:47;8.80;85.30
72440;DHT22;60446;50.752;4.352;2023-03-14T03:53:18;8.80;85.20
72440;DHT22;60446;50.752;4.352;2023-03-14T03:55:59;8.80;85.50
72440;DHT22;60446;50.752;4.352;2023-03-14T03:58:26;8.80;85.40
72440;DHT22;60446;50.752;4.352;2023-03-14T04:00:54;8.80;85.50
72440;DHT22;60446;50.752;4.352;2023-03-14T04:03:21;8.80;85.60
72440;DHT22;60446;50.752;4.352;2023-03-14T04:06:03;8.90;85.30
72440;DHT22;60446;50.752;4.352;2023-03-14T04:08:34;8.90;85.40
72440;DHT22;60446;50.752;4.352;2023-03-14T04:11:01;8.90;85.30
72440;DHT22;60446;50.752;4.352;2023-03-14T04:14:07;8.90;85.40
72440;DHT22;60446;50.752;4.352;2023-03-14T04:16:35;8.90;85.30
72440;DHT22;60446;50.752;4.352;2023-03-14T04:19:12;8.90;85.30
72440;DHT22;60446;50.752;4.352;2023-03-14T04:21:39;8.90;85.50
72440;DHT22;60446;50.752;4.352;2023-03-14T04:24:11;8.90;85.50
72440;DHT22;60446;50.752;4.352;2023-03-14T04:26:40;8.90;85.60
72440;DHT22;60446;50.752;4.352;2023-03-14T04:29:09;8.90;85.70
72440;DHT22;60446;50.752;4.352;2023-03-14T04:31:39;8.90;85.50
72440;DHT22;60446;50.752;4.352;2023-03-14T04:34:07;9.00;85.60
72440;DHT22;60446;50.752;4.352;2023-03-14T04:36:39;9.00;85.70
72440;DHT22;60446;50.752;4.352;2023-03-14T04:39:12;9.00;85.60
72440;DHT22;60446;50.752;4.352;2023-03-14T04:41:45;9.00;85.70
72440;DHT22;60446;50.752;4.352;2023-03-14T04:44:13;9.00;85.50
72440;DHT22;60446;50.752;4.352;2023-03-14T04:46:41;9.00;85.50
72440;DHT22;60446;50.752;4.352;2023-03-14T04:49:10;9.00;85.40
72440;DHT22;60446;50.752;4.352;2023-03-14T04:51:37;9.00;85.80
72440;DHT22;60446;50.752;4.352;2023-03-14T04:54:05;9.10;85.80
72440;DHT22;60446;50.752;4.352;2023-03-14T04:56:32;9.10;85.40
72440;DHT22;60446;50.752;4.352;2023-03-14T04:59:01;9.10;85.50
72440;DHT22;60446;50.752;4.352;2023-03-14T05:01:30;9.10;85.40
72440;DHT22;60446;50.752;4.352;2023-03-14T05:04:17;9.10;85.50
72440;DHT22;60446;50.752;4.352;2023-03-14T05:06:55;9.10;85.60
72440;DHT22;60446;50.752;4.352;2023-03-14T05:09:41;9.10;85.90
72440;DHT22;60446;50.752;4.352;2023-03-14T05:12:43;9.10;86.00
72440;DHT22;60446;50.752;4.352;2023-03-14T05:15:39;9.10;86.10
72440;DHT22;60446;50.752;4.352;2023-03-14T05:18:17;9.10;86.10
72440;DHT22;60446;50.752;4.352;2023-03-14T05:21:04;9.00;86.20
72440;DHT22;60446;50.752;4.352;2023-03-14T05:23:49;9.10;86.40
72440;DHT22;60446;50.752;4.352;2023-03-14T05:26:48;9.10;86.00
72440;DHT22;60446;50.752;4.352;2023-03-14T05:29:35;9.10;86.00
72440;DHT22;60446;50.752;4.352;2023-03-14T05:32:25;9.10;86.20
72440;DHT22;60446;50.752;4.352;2023-03-14T05:35:11;9.10;86.20
72440;DHT22;60446;50.752;4.352;2023-03-14T05:37:59;9.10;86.20
72440;DHT22;60446;50.752;4.352;2023-03-14T05:40:47;9.10;86.00
72440;DHT22;60446;50.752;4.352;2023-03-14T05:43:26;9.20;85.60
72440;DHT22;60446;50.752;4.352;2023-03-14T05:46:08;9.10;85.80
72440;DHT22;60446;50.752;4.352;2023-03-14T05:48:48;9.10;85.90
72440;DHT22;60446;50.752;4.352;2023-03-14T05:51:35;9.10;85.80
72440;DHT22;60446;50.752;4.352;2023-03-14T05:54:23;9.10;86.00
72440;DHT22;60446;50.752;4.352;2023-03-14T05:57:02;9.10;85.90
72440;DHT22;60446;50.752;4.352;2023-03-14T05:59:56;9.10;85.90
72440;DHT22;60446;50.752;4.352;2023-03-14T06:02:52;9.10;86.10
72440;DHT22;60446;50.752;4.352;2023-03-14T06:05:25;9.10;86.10
72440;DHT22;60446;50.752;4.352;2023-03-14T06:07:58;9.10;86.20
72440;DHT22;60446;50.752;4.352;2023-03-14T06:10:27;9.10;86.00
72440;DHT22;60446;50.752;4.352;2023-03-14T06:12:55;9.10;85.50
72440;DHT22;60446;50.752;4.352;2023-03-14T06:15:22;9.10;85.80
72440;DHT22;60446;50.752;4.352;2023-03-14T06:17:54;9.10;85.90
72440;DHT22;60446;50.752;4.352;2023-03-14T06:20:23;9.20;85.70
72440;DHT22;60446;50.752;4.352;2023-03-14T06:22:50;9.20;85.50
72440;DHT22;60446;50.752;4.352;2023-03-14T06:25:17;9.20;85.70
72440;DHT22;60446;50.752;4.352;2023-03-14T06:27:46;9.20;85.80
72440;DHT22;60446;50.752;4.352;2023-03-14T06:30:15;9.10;85.60
72440;DHT22;60446;50.752;4.352;2023-03-14T06:32:43;9.10;85.90
72440;DHT22;60446;50.752;4.352;2023-03-14T06:35:13;9.20;86.10
72440;DHT22;60446;50.752;4.352;2023-03-14T06:37:42;9.20;85.70
72440;DHT22;60446;50.752;4.352;2023-03-14T06:40:10;9.20;85.70
72440;DHT22;60446;50.752;4.352;2023-03-14T06:42:49;9.20;85.70
72440;DHT22;60446;50.752;4.352;2023-03-14T06:45:19;9.20;85.60
72440;DHT22;60446;50.752;4.352;2023-03-14T06:47:46;9.10;85.60
72440;DHT22;60446;50.752;4.352;2023-03-14T06:50:15;9.10;85.90
72440;DHT22;60446;50.752;4.352;2023-03-14T06:52:43;9.10;86.10
72440;DHT22;60446;50.752;4.352;2023-03-14T06:55:19;8.90;84.30
72440;DHT22;60446;50.752;4.352;2023-03-14T06:57:49;8.40;82.60
72440;DHT22;60446;50.752;4.352;2023-03-14T07:00:17;7.90;83.00
72440;DHT22;60446;50.752;4.352;2023-03-14T07:02:44;7.60;83.10
72440;DHT22;60446;50.752;4.352;2023-03-14T07:05:21;7.40;84.10
72440;DHT22;60446;50.752;4.352;2023-03-14T07:07:49;7.30;83.70
72440;DHT22;60446;50.752;4.352;2023-03-14T07:10:16;7.10;83.60
72440;DHT22;60446;50.752;4.352;2023-03-14T07:12:44;7.10;83.90
72440;DHT22;60446;50.752;4.352;2023-03-14T07:15:11;6.90;85.20
72440;DHT22;60446;50.752;4.352;2023-03-14T07:17:48;6.90;85.90
72440;DHT22;60446;50.752;4.352;2023-03-14T07:20:18;6.90;86.10
72440;DHT22;60446;50.752;4.352;2023-03-14T07:22:50;6.80;85.50
72440;DHT22;60446;50.752;4.352;2023-03-14T07:25:24;6.70;84.80
72440;DHT22;60446;50.752;4.352;2023-03-14T07:27:52;6.60;85.70
72440;DHT22;60446;50.752;4.352;2023-03-14T07:30:19;6.50;85.10
72440;DHT22;60446;50.752;4.352;2023-03-14T07:32:47;6.50;85.50
72440;DHT22;60446;50.752;4.352;2023-03-14T07:35:14;6.40;85.70
72440;DHT22;60446;50.752;4.352;2023-03-14T07:37:41;6.30;84.30
72440;DHT22;60446;50.752;4.352;2023-03-14T07:40:11;6.30;85.80
72440;DHT22;60446;50.752;4.352;2023-03-14T07:42:42;6.30;84.90
72440;DHT22;60446;50.752;4.352;2023-03-14T07:45:15;6.30;84.90
72440;DHT22;60446;50.752;4.352;2023-03-14T07:47:44;6.30;84.40
72440;DHT22;60446;50.752;4.352;2023-03-14T07:50:11;6.30;83.80
72440;DHT22;60446;50.752;4.352;2023-03-14T07:52:38;6.40;84.70
72440;DHT22;60446;50.752;4.352;2023-03-14T07:55:05;6.40;84.20
72440;DHT22;60446;50.752;4.352;2023-03-14T07:57:33;6.50;83.00
72440;DHT22;60446;50.752;4.352;2023-03-14T08:00:00;6.50;82.80
72440;DHT22;60446;50.752;4.352;2023-03-14T08:02:27;6.40;82.80
72440;DHT22;60446;50.752;4.352;2023-03-14T08:04:54;6.30;83.20
72440;DHT22;60446;50.752;4.352;2023-03-14T08:07:22;6.30;83.40
72440;DHT22;60446;50.752;4.352;2023-03-14T08:09:49;6.30;84.10
72440;DHT22;60446;50.752;4.352;2023-03-14T08:12:16;6.40;84.40
72440;DHT22;60446;50.752;4.352;2023-03-14T08:14:43;6.40;84.70
72440;DHT22;60446;50.752;4.352;2023-03-14T08:17:10;6.40;84.80
72440;DHT22;60446;50.752;4.352;2023-03-14T08:19:37;6.40;84.50
72440;DHT22;60446;50.752;4.352;2023-03-14T08:22:04;6.40;83.70
72440;DHT22;60446;50.752;4.352;2023-03-14T08:24:32;6.50;83.50
72440;DHT22;60446;50.752;4.352;2023-03-14T08:26:59;6.50;82.90
72440;DHT22;60446;50.752;4.352;2023-03-14T08:29:26;6.40;82.50
72440;DHT22;60446;50.752;4.352;2023-03-14T08:31:53;6.30;81.30
72440;DHT22;60446;50.752;4.352;2023-03-14T08:34:21;6.30;82.30
72440;DHT22;60446;50.752;4.352;2023-03-14T08:36:48;6.30;81.90
72440;DHT22;60446;50.752;4.352;2023-03-14T08:39:15;6.40;81.90
72440;DHT22;60446;50.752;4.352;2023-03-14T08:41:43;6.40;80.30
72440;DHT22;60446;50.752;4.352;2023-03-14T08:44:11;6.30;81.40
72440;DHT22;60446;50.752;4.352;2023-03-14T08:46:38;6.30;81.60
72440;DHT22;60446;50.752;4.352;2023-03-14T08:49:05;6.20;82.10
72440;DHT22;60446;50.752;4.352;2023-03-14T08:51:32;6.10;81.60
72440;DHT22;60446;50.752;4.352;2023-03-14T08:54:00;6.10;81.70
72440;DHT22;60446;50.752;4.352;2023-03-14T08:56:27;6.10;82.30
72440;DHT22;60446;50.752;4.352;2023-03-14T08:58:54;6.00;81.70
72440;DHT22;60446;50.752;4.352;2023-03-14T09:01:21;6.00;81.10
72440;DHT22;60446;50.752;4.352;2023-03-14T09:03:51;5.90;81.00
72440;DHT22;60446;50.752;4.352;2023-03-14T09:06:22;5.90;82.50
72440;DHT22;60446;50.752;4.352;2023-03-14T09:08:50;5.90;81.40
72440;DHT22;60446;50.752;4.352;2023-03-14T09:11:21;5.90;80.70
72440;DHT22;60446;50.752;4.352;2023-03-14T09:13:54;5.90;81.50
72440;DHT22;60446;50.752;4.352;2023-03-14T09:16:23;5.90;80.50
72440;DHT22;60446;50.752;4.352;2023-03-14T09:18:50;5.80;80.60
72440;DHT22;60446;50.752;4.352;2023-03-14T09:21:21;5.80;79.30
72440;DHT22;60446;50.752;4.352;2023-03-14T09:23:51;5.80;79.20
72440;DHT22;60446;50.752;4.352;2023-03-14T09:26:24;5.70;78.30
72440;DHT22;60446;50.752;4.352;2023-03-14T09:29:08;5.70;78.40
72440;DHT22;60446;50.752;4.352;2023-03-14T09:31:38;5.70;80.60
72440;DHT22;60446;50.752;4.352;2023-03-14T09:34:18;5.90;81.60
72440;DHT22;60446;50.752;4.352;2023-03-14T09:36:54;6.00;78.70
72440;DHT22;60446;50.752;4.352;2023-03-14T09:39:29;6.00;78.40
72440;DHT22;60446;50.752;4.352;2023-03-14T09:41:58;6.00;77.70
72440;DHT22;60446;50.752;4.352;2023-03-14T09:44:36;5.90;76.90
72440;DHT22;60446;50.752;4.352;2023-03-14T09:47:12;5.90;77.80
72440;DHT22;60446;50.752;4.352;2023-03-14T09:49:47;6.00;78.20
72440;DHT22;60446;50.752;4.352;2023-03-14T09:52:29;6.10;78.00
72440;DHT22;60446;50.752;4.352;2023-03-14T09:55:13;6.20;76.80
72440;DHT22;60446;50.752;4.352;2023-03-14T09:57:44;6.20;77.30
72440;DHT22;60446;50.752;4.352;2023-03-14T10:00:19;6.30;75.80
72440;DHT22;60446;50.752;4.352;2023-03-14T10:03:33;6.30;76.00
72440;DHT22;60446;50.752;4.352;2023-03-14T10:06:13;6.40;77.90
72440;DHT22;60446;50.752;4.352;2023-03-14T10:08:42;6.50;75.00
72440;DHT22;60446;50.752;4.352;2023-03-14T10:11:15;6.50;75.30
72440;DHT22;60446;50.752;4.352;2023-03-14T10:16:44;6.60;75.10
72440;DHT22;60446;50.752;4.352;2023-03-14T10:19:15;6.60;73.60
72440;DHT22;60446;50.752;4.352;2023-03-14T10:21:50;6.60;73.40
72440;DHT22;60446;50.752;4.352;2023-03-14T10:26:57;6.70;73.60
72440;DHT22;60446;50.752;4.352;2023-03-14T10:29:52;6.80;72.20
72440;DHT22;60446;50.752;4.352;2023-03-14T10:32:38;6.80;73.30
72440;DHT22;60446;50.752;4.352;2023-03-14T10:37:58;6.70;74.80
72440;DHT22;60446;50.752;4.352;2023-03-14T10:40:33;6.80;72.80
72440;DHT22;60446;50.752;4.352;2023-03-14T10:43:06;6.70;71.80
72440;DHT22;60446;50.752;4.352;2023-03-14T10:45:44;6.80;73.30
72440;DHT22;60446;50.752;4.352;2023-03-14T10:51:19;6.60;72.40
72440;DHT22;60446;50.752;4.352;2023-03-14T10:54:14;6.60;72.70
72440;DHT22;60446;50.752;4.352;2023-03-14T10:56:57;6.60;71.40
72440;DHT22;60446;50.752;4.352;2023-03-14T10:59:29;6.40;72.10
72440;DHT22;60446;50.752;4.352;2023-03-14T11:02:21;6.50;73.30
72440;DHT22;60446;50.752;4.352;2023-03-14T11:07:47;6.50;71.70
72440;DHT22;60446;50.752;4.352;2023-03-14T11:21:26;6.00;74.20
72440;DHT22;60446;50.752;4.352;2023-03-14T11:30:19;5.60;78.70
72440;DHT22;60446;50.752;4.352;2023-03-14T11:33:18;5.50;79.40
72440;DHT22;60446;50.752;4.352;2023-03-14T11:36:09;5.40;80.90
72440;DHT22;60446;50.752;4.352;2023-03-14T11:38:43;5.40;81.30
72440;DHT22;60446;50.752;4.352;2023-03-14T11:41:20;5.40;80.50
72440;DHT22;60446;50.752;4.352;2023-03-14T11:43:59;5.40;80.60
72440;DHT22;60446;50.752;4.352;2023-03-14T11:49:50;5.50;82.00
72440;DHT22;60446;50.752;4.352;2023-03-14T11:55:20;5.20;79.40
72440;DHT22;60446;50.752;4.352;2023-03-14T11:57:58;5.10;82.20
72440;DHT22;60446;50.752;4.352;2023-03-14T12:00:29;5.00;81.90
72440;DHT22;60446;50.752;4.352;2023-03-14T12:06:15;4.80;81.50
72440;DHT22;60446;50.752;4.352;2023-03-14T12:08:58;4.70;83.70
72440;DHT22;60446;50.752;4.352;2023-03-14T12:14:00;4.50;82.10
72440;DHT22;60446;50.752;4.352;2023-03-14T12:16:38;4.40;82.70
72440;DHT22;60446;50.752;4.352;2023-03-14T12:19:34;4.40;83.40
72440;DHT22;60446;50.752;4.352;2023-03-14T12:24:51;4.50;83.40
72440;DHT22;60446;50.752;4.352;2023-03-14T12:30:44;4.60;82.00
72440;DHT22;60446;50.752;4.352;2023-03-14T12:35:52;4.80;83.10
72440;DHT22;60446;50.752;4.352;2023-03-14T12:43:55;5.00;83.00
72440;DHT22;60446;50.752;4.352;2023-03-14T12:46:25;5.10;81.60
72440;DHT22;60446;50.752;4.352;2023-03-14T12:51:33;5.00;81.40
72440;DHT22;60446;50.752;4.352;2023-03-14T12:57:33;4.90;80.90
72440;DHT22;60446;50.752;4.352;2023-03-14T13:00:18;4.80;81.20
72440;DHT22;60446;50.752;4.352;2023-03-14T13:02:49;4.80;81.60
72440;DHT22;60446;50.752;4.352;2023-03-14T13:05:21;4.70;81.40
72440;DHT22;60446;50.752;4.352;2023-03-14T13:10:23;4.60;81.80
72440;DHT22;60446;50.752;4.352;2023-03-14T13:15:41;4.60;80.20
72440;DHT22;60446;50.752;4.352;2023-03-14T13:18:16;4.60;82.40
72440;DHT22;60446;50.752;4.352;2023-03-14T13:20:52;4.50;80.50
72440;DHT22;60446;50.752;4.352;2023-03-14T13:23:28;4.60;81.60
72440;DHT22;60446;50.752;4.352;2023-03-14T13:25:58;4.70;83.00
72440;DHT22;60446;50.752;4.352;2023-03-14T13:28:27;4.90;82.90
72440;DHT22;60446;50.752;4.352;2023-03-14T13:31:01;5.00;82.60
72440;DHT22;60446;50.752;4.352;2023-03-14T13:33:29;5.10;81.40
72440;DHT22;60446;50.752;4.352;2023-03-14T13:38:33;5.10;80.60
72440;DHT22;60446;50.752;4.352;2023-03-14T13:41:06;5.10;80.90
72440;DHT22;60446;50.752;4.352;2023-03-14T13:43:42;5.10;81.50
72440;DHT22;60446;50.752;4.352;2023-03-14T13:46:20;5.10;80.80
72440;DHT22;60446;50.752;4.352;2023-03-14T13:48:57;5.10;79.70
72440;DHT22;60446;50.752;4.352;2023-03-14T13:51:26;4.90;80.40
72440;DHT22;60446;50.752;4.352;2023-03-14T13:53:58;4.80;80.20
72440;DHT22;60446;50.752;4.352;2023-03-14T13:56:28;4.80;81.80
72440;DHT22;60446;50.752;4.352;2023-03-14T13:58:57;4.90;80.20
72440;DHT22;60446;50.752;4.352;2023-03-14T14:01:33;4.90;80.20
72440;DHT22;60446;50.752;4.352;2023-03-14T14:04:08;4.90;80.20
72440;DHT22;60446;50.752;4.352;2023-03-14T14:06:46;5.00;80.10
72440;DHT22;60446;50.752;4.352;2023-03-14T14:09:38;4.90;78.30
72440;DHT22;60446;50.752;4.352;2023-03-14T14:12:20;4.90;78.70
72440;DHT22;60446;50.752;4.352;2023-03-14T14:14:59;4.90;79.10
72440;DHT22;60446;50.752;4.352;2023-03-14T14:17:43;5.00;78.80
72440;DHT22;60446;50.752;4.352;2023-03-14T14:22:49;5.40;79.80
72440;DHT22;60446;50.752;4.352;2023-03-14T14:25:17;5.50;78.30
72440;DHT22;60446;50.752;4.352;2023-03-14T14:27:48;5.60;78.30
72440;DHT22;60446;50.752;4.352;2023-03-14T14:32:45;5.80;78.10
72440;DHT22;60446;50.752;4.352;2023-03-14T14:35:31;5.90;78.50
72440;DHT22;60446;50.752;4.352;2023-03-14T14:38:00;6.00;74.70
72440;DHT22;60446;50.752;4.352;2023-03-14T14:40:30;5.90;75.30
72440;DHT22;60446;50.752;4.352;2023-03-14T14:43:04;6.00;76.40
72440;DHT22;60446;50.752;4.352;2023-03-14T14:45:34;5.90;74.40
72440;DHT22;60446;50.752;4.352;2023-03-14T14:50:31;5.70;72.60
72440;DHT22;60446;50.752;4.352;2023-03-14T14:53:02;5.60;73.20
72440;DHT22;60446;50.752;4.352;2023-03-14T14:55:38;5.30;73.00
72440;DHT22;60446;50.752;4.352;2023-03-14T14:58:43;5.20;71.10
72440;DHT22;60446;50.752;4.352;2023-03-14T15:01:18;4.80;65.00
72440;DHT22;60446;50.752;4.352;2023-03-14T15:03:51;4.50;65.50
72440;DHT22;60446;50.752;4.352;2023-03-14T15:06:19;4.20;66.60
72440;DHT22;60446;50.752;4.352;2023-03-14T15:08:49;3.90;66.90
72440;DHT22;60446;50.752;4.352;2023-03-14T15:11:21;3.70;68.00
72440;DHT22;60446;50.752;4.352;2023-03-14T15:13:50;3.60;66.60
72440;DHT22;60446;50.752;4.352;2023-03-14T15:16:23;3.50;69.00
72440;DHT22;60446;50.752;4.352;2023-03-14T15:18:57;3.50;69.40
72440;DHT22;60446;50.752;4.352;2023-03-14T15:21:27;3.60;69.50
72440;DHT22;60446;50.752;4.352;2023-03-14T15:23:55;3.70;68.70
72440;DHT22;60446;50.752;4.352;2023-03-14T15:26:24;3.80;69.60
72440;DHT22;60446;50.752;4.352;2023-03-14T15:28:53;4.00;66.50
72440;DHT22;60446;50.752;4.352;2023-03-14T15:31:21;4.20;68.10
72440;DHT22;60446;50.752;4.352;2023-03-14T15:33:48;4.20;71.20
72440;DHT22;60446;50.752;4.352;2023-03-14T15:36:23;4.20;68.70
72440;DHT22;60446;50.752;4.352;2023-03-14T15:38:55;4.40;67.20
72440;DHT22;60446;50.752;4.352;2023-03-14T15:41:23;4.40;65.60
72440;DHT22;60446;50.752;4.352;2023-03-14T15:43:53;4.30;63.30
72440;DHT22;60446;50.752;4.352;2023-03-14T15:46:21;4.50;71.40
72440;DHT22;60446;50.752;4.352;2023-03-14T15:48:50;4.70;74.40
72440;DHT22;60446;50.752;4.352;2023-03-14T15:51:18;4.70;75.80
72440;DHT22;60446;50.752;4.352;2023-03-14T15:53:46;4.80;76.50
72440;DHT22;60446;50.752;4.352;2023-03-14T15:56:29;4.90;75.00
72440;DHT22;60446;50.752;4.352;2023-03-14T15:58:59;4.90;73.40
72440;DHT22;60446;50.752;4.352;2023-03-14T16:01:37;4.70;71.80
72440;DHT22;60446;50.752;4.352;2023-03-14T16:04:07;4.80;74.60
72440;DHT22;60446;50.752;4.352;2023-03-14T16:06:34;4.80;76.70
72440;DHT22;60446;50.752;4.352;2023-03-14T16:09:02;4.70;75.30
72440;DHT22;60446;50.752;4.352;2023-03-14T16:11:30;4.50;74.50
72440;DHT22;60446;50.752;4.352;2023-03-14T16:13:58;4.40;73.70
72440;DHT22;60446;50.752;4.352;2023-03-14T16:16:25;4.50;76.20
72440;DHT22;60446;50.752;4.352;2023-03-14T16:19:01;4.60;76.10
72440;DHT22;60446;50.752;4.352;2023-03-14T16:21:29;4.50;78.20
72440;DHT22;60446;50.752;4.352;2023-03-14T16:24:00;4.60;77.10
72440;DHT22;60446;50.752;4.352;2023-03-14T16:26:40;4.60;78.10
72440;DHT22;60446;50.752;4.352;2023-03-14T16:29:30;4.60;78.30
72440;DHT22;60446;50.752;4.352;2023-03-14T16:32:07;4.50;76.60
72440;DHT22;60446;50.752;4.352;2023-03-14T16:34:37;4.30;73.30
72440;DHT22;60446;50.752;4.352;2023-03-14T16:37:06;4.40;76.10
72440;DHT22;60446;50.752;4.352;2023-03-14T16:39:33;4.40;72.50
72440;DHT22;60446;50.752;4.352;2023-03-14T16:42:17;4.40;76.30
72440;DHT22;60446;50.752;4.352;2023-03-14T16:44:44;4.50;76.70
72440;DHT22;60446;50.752;4.352;2023-03-14T16:47:21;4.40;77.50
72440;DHT22;60446;50.752;4.352;2023-03-14T16:49:48;4.40;78.50
72440;DHT22;60446;50.752;4.352;2023-03-14T16:52:16;4.30;78.70
72440;DHT22;60446;50.752;4.352;2023-03-14T16:54:49;4.20;76.00
72440;DHT22;60446;50.752;4.352;2023-03-14T16:57:16;4.30;77.20
72440;DHT22;60446;50.752;4.352;2023-03-14T16:59:46;4.40;76.00
72440;DHT22;60446;50.752;4.352;2023-03-14T17:02:26;4.50;76.70
72440;DHT22;60446;50.752;4.352;2023-03-14T17:04:54;4.50;76.90
72440;DHT22;60446;50.752;4.352;2023-03-14T17:07:26;4.40;78.00
72440;DHT22;60446;50.752;4.352;2023-03-14T17:09:55;4.30;76.10
72440;DHT22;60446;50.752;4.352;2023-03-14T17:12:25;4.40;76.70
72440;DHT22;60446;50.752;4.352;2023-03-14T17:14:59;4.20;76.10
72440;DHT22;60446;50.752;4.352;2023-03-14T17:17:26;4.20;78.50
72440;DHT22;60446;50.752;4.352;2023-03-14T17:19:56;4.10;77.50
72440;DHT22;60446;50.752;4.352;2023-03-14T17:22:23;4.10;77.50
72440;DHT22;60446;50.752;4.352;2023-03-14T17:24:57;4.10;77.90
72440;DHT22;60446;50.752;4.352;2023-03-14T17:27:28;4.00;78.60
72440;DHT22;60446;50.752;4.352;2023-03-14T17:29:55;4.00;78.80
72440;DHT22;60446;50.752;4.352;2023-03-14T17:32:22;3.90;79.30
72440;DHT22;60446;50.752;4.352;2023-03-14T17:34:49;3.80;78.60
72440;DHT22;60446;50.752;4.352;2023-03-14T17:37:16;3.80;77.80
72440;DHT22;60446;50.752;4.352;2023-03-14T17:39:44;3.80;76.70
72440;DHT22;60446;50.752;4.352;2023-03-14T17:42:11;3.70;77.60
72440;DHT22;60446;50.752;4.352;2023-03-14T17:44:38;3.70;74.00